Time;durP1;ratioP1;P1;durP2;ratioP2;P2;SDS_P1;SDS_P2;PMS_P1;PMS_P2;Temp;Humidity;BMP_temperature;BMP_pressure;BME280_temperature;BME280_humidity;BME280_pressure;Samples;Min_cycle;Max_cycle;Signal;HPM_P1;HPM_P2
2022/03/30 00:00:39;;;;;;;8.02;6.60;;;20.80;59.70;;;;;;4932032;28;89009;-80
2022/03/30 00:03:04;;;;;;;7.53;6.28;;;20.70;59.70;;;;;;4933344;28;87319;-82
2022/03/30 00:05:30;;;;;;;8.32;6.35;;;20.70;59.60;;;;;;4933071;28;87382;-81
2022/03/30 00:08:06;;;;;;;8.65;6.47;;;20.70;59.60;;;;;;4933202;28;87713;-82
2022/03/30 00:10:32;;;;;;;7.40;6.00;;;20.70;59.50;;;;;;4933046;28;87113;-84
2022/03/30 00:12:58;;;;;;;7.13;6.32;;;20.70;59.40;;;;;;4932892;28;86994;-82
2022/03/30 00:15:25;;;;;;;9.05;6.65;;;20.70;59.40;;;;;;4932827;28;88125;-88
2022/03/30 00:17:51;;;;;;;7.97;6.32;;;20.70;59.40;;;;;;4931927;28;88576;-91
2022/03/30 00:20:18;;;;;;;7.63;6.32;;;20.70;59.50;;;;;;4931747;28;87009;-85
2022/03/30 00:22:44;;;;;;;7.85;6.15;;;20.70;59.50;;;;;;4931703;28;87374;-80
2022/03/30 00:25:11;;;;;;;8.95;6.57;;;20.70;59.40;;;;;;4931384;28;89188;-83
2022/03/30 00:27:39;;;;;;;6.93;6.03;;;20.70;59.40;;;;;;4931319;28;88665;-81
2022/03/30 00:30:06;;;;;;;7.72;6.72;;;20.60;59.50;;;;;;4931425;28;87130;-83
2022/03/30 00:32:32;;;;;;;7.40;6.15;;;20.70;59.70;;;;;;4931787;28;87874;-80
2022/03/30 00:34:58;;;;;;;7.03;6.32;;;20.70;59.50;;;;;;4931742;28;88167;-81
2022/03/30 00:37:23;;;;;;;6.38;5.78;;;20.70;59.50;;;;;;4931227;28;87607;-80
2022/03/30 00:39:49;;;;;;;7.85;6.53;;;20.70;59.50;;;;;;4931429;28;87494;-80
2022/03/30 00:42:15;;;;;;;7.78;6.80;;;20.70;59.40;;;;;;4931874;28;87385;-81
2022/03/30 00:44:41;;;;;;;7.03;6.32;;;20.70;59.30;;;;;;4931470;28;87841;-82
2022/03/30 00:47:21;;;;;;;7.70;6.60;;;20.60;59.30;;;;;;4931243;28;88299;-81
2022/03/30 00:49:47;;;;;;;7.03;6.05;;;20.60;60.10;;;;;;4931211;28;88523;-87
2022/03/30 00:52:14;;;;;;;8.60;6.80;;;20.70;59.50;;;;;;4931628;28;86904;-85
2022/03/30 00:54:42;;;;;;;6.82;6.13;;;20.70;60.10;;;;;;4929545;28;90230;-82
2022/03/30 00:57:10;;;;;;;8.02;6.97;;;20.70;59.40;;;;;;4929959;28;90058;-80
2022/03/30 00:59:36;;;;;;;7.18;6.38;;;20.60;59.40;;;;;;4931092;28;87761;-83
2022/03/30 01:02:03;;;;;;;7.70;6.13;;;20.60;59.30;;;;;;4931687;28;87024;-81
2022/03/30 01:04:31;;;;;;;7.47;6.68;;;20.60;59.30;;;;;;4931696;28;88190;-80
2022/03/30 01:06:57;;;;;;;6.40;5.63;;;20.60;59.30;;;;;;4932226;28;87239;-80
2022/03/30 01:09:24;;;;;;;6.88;6.18;;;20.60;59.20;;;;;;4932122;28;87198;-85
2022/03/30 01:11:51;;;;;;;7.05;6.32;;;20.60;59.20;;;;;;4931685;28;87654;-87
2022/03/30 01:14:18;;;;;;;7.22;6.40;;;20.60;59.20;;;;;;4931155;28;88448;-81
2022/03/30 01:16:44;;;;;;;7.38;6.22;;;20.60;59.20;;;;;;4931458;28;88993;-80
2022/03/30 01:19:10;;;;;;;6.97;6.28;;;20.60;59.20;;;;;;4931019;28;87853;-81
2022/03/30 01:21:49;;;;;;;7.30;6.45;;;20.60;59.30;;;;;;4931880;28;87706;-84
2022/03/30 01:24:14;;;;;;;9.02;6.60;;;20.60;59.20;;;;;;4931597;28;87840;-80
2022/03/30 01:26:41;;;;;;;6.97;6.28;;;20.60;59.00;;;;;;4930305;28;89644;-80
2022/03/30 01:34:38;;;;;;;7.57;6.78;;;20.60;59.00;;;;;;4931552;28;88374;-81
2022/03/30 01:37:14;;;;;;;6.53;5.85;;;20.60;59.00;;;;;;4931864;28;87389;-82
2022/03/30 01:39:40;;;;;;;6.97;6.28;;;20.50;59.00;;;;;;4931557;28;88892;-80
2022/03/30 01:42:06;;;;;;;7.07;6.38;;;20.50;59.00;;;;;;4931963;28;87827;-82
2022/03/30 01:44:32;;;;;;;6.38;5.78;;;20.60;59.00;;;;;;4931127;28;87655;-84
2022/03/30 01:46:58;;;;;;;7.63;6.82;;;20.50;58.90;;;;;;4931102;28;88390;-91
2022/03/30 01:49:24;;;;;;;6.65;5.95;;;20.50;59.00;;;;;;4931515;28;87278;-89
2022/03/30 01:51:53;;;;;;;8.45;6.88;;;20.50;58.90;;;;;;4931159;28;87366;-81
2022/03/30 01:54:20;;;;;;;;;;;20.50;58.80;;;;;;4931269;28;89105;-83
2022/03/30 01:56:51;;;;;;;6.95;6.25;;;20.50;58.90;;;;;;4931080;28;90149;-88
2022/03/30 01:59:17;;;;;;;7.95;6.60;;;20.50;58.80;;;;;;4931271;28;87238;-81
2022/03/30 02:01:43;;;;;;;9.05;6.50;;;20.50;58.90;;;;;;4931522;28;87438;-81
2022/03/30 02:04:09;;;;;;;7.43;6.65;;;20.50;58.70;;;;;;4931491;28;89058;-80
2022/03/30 02:06:36;;;;;;;8.02;6.53;;;20.50;58.70;;;;;;4931765;28;87962;-84
2022/03/30 02:09:03;;;;;;;7.47;6.53;;;20.50;58.70;;;;;;4931571;28;88047;-81
2022/03/30 02:11:29;;;;;;;7.05;6.32;;;20.50;58.60;;;;;;4934449;28;88073;-83
2022/03/30 02:13:58;;;;;;;7.72;6.90;;;20.50;58.70;;;;;;4933118;28;86970;-81
2022/03/30 02:16:24;;;;;;;7.88;6.70;;;20.50;58.60;;;;;;4932924;28;87829;-86
2022/03/30 02:18:50;;;;;;;7.32;6.32;;;20.50;58.70;;;;;;5096328;23;89231;-72
2022/03/30 02:21:16;;;;;;;7.40;6.57;;;20.50;58.70;;;;;;4894697;28;86819;-69
2022/03/30 02:23:45;;;;;;;7.32;6.57;;;20.50;58.60;;;;;;4893385;28;88081;-69
2022/03/30 02:26:12;;;;;;;7.50;6.38;;;20.50;58.60;;;;;;4894718;28;87828;-71
2022/03/30 02:28:38;;;;;;;7.28;6.47;;;20.50;58.70;;;;;;4907057;28;88782;-72
2022/03/30 02:31:04;;;;;;;7.20;6.13;;;20.50;58.60;;;;;;4893080;28;86948;-71
2022/03/30 02:33:29;;;;;;;7.65;6.68;;;20.50;58.70;;;;;;4894371;28;88082;-69
2022/03/30 02:35:56;;;;;;;7.15;6.45;;;20.50;58.60;;;;;;4894317;28;88046;-69
2022/03/30 02:38:22;;;;;;;7.90;6.90;;;20.40;58.60;;;;;;4894368;28;88030;-69
2022/03/30 02:40:47;;;;;;;7.10;6.40;;;20.40;58.70;;;;;;4894046;28;87583;-70
2022/03/30 02:43:16;;;;;;;7.55;6.85;;;20.40;58.60;;;;;;4893061;28;88076;-71
2022/03/30 02:45:43;;;;;;;9.70;7.03;;;20.40;58.60;;;;;;4893462;28;88134;-69
2022/03/30 02:48:17;;;;;;;7.88;6.63;;;20.40;58.50;;;;;;4907793;28;88215;-68
2022/03/30 02:50:47;;;;;;;7.78;6.53;;;20.40;58.50;;;;;;4892742;28;87643;-71
2022/03/30 02:53:13;;;;;;;7.57;6.75;;;20.40;58.40;;;;;;4893621;28;88629;-69
2022/03/30 02:55:39;;;;;;;9.13;6.32;;;20.40;58.40;;;;;;4908372;28;88846;-68
2022/03/30 02:58:05;;;;;;;6.95;6.28;;;20.40;58.40;;;;;;4893357;28;87944;-69
2022/03/30 03:00:31;;;;;;;7.05;6.38;;;20.40;58.40;;;;;;4908299;28;90313;-70
2022/03/30 03:02:57;;;;;;;6.95;6.05;;;20.40;58.30;;;;;;4894266;28;88202;-69
2022/03/30 03:05:26;;;;;;;7.30;6.30;;;20.40;58.60;;;;;;4894174;28;87826;-69
2022/03/30 03:07:52;;;;;;;7.43;6.72;;;20.40;58.40;;;;;;4894216;28;87931;-70
2022/03/30 03:10:17;;;;;;;6.72;5.97;;;20.40;58.40;;;;;;4893930;28;86704;-69
2022/03/30 03:12:43;;;;;;;7.50;6.47;;;20.40;58.50;;;;;;4893884;28;88010;-71
2022/03/30 03:15:09;;;;;;;7.88;6.22;;;20.40;58.40;;;;;;4894086;28;87841;-69
2022/03/30 03:17:35;;;;;;;7.70;6.05;;;20.40;58.40;;;;;;4893175;28;88696;-72
2022/03/30 03:20:03;;;;;;;6.95;6.10;;;20.40;58.40;;;;;;4892926;28;88143;-69
2022/03/30 03:22:29;;;;;;;6.93;6.22;;;20.40;58.50;;;;;;4892047;28;89770;-69
2022/03/30 03:24:54;;;;;;;6.40;5.80;;;20.30;58.50;;;;;;4907898;28;90156;-71
2022/03/30 03:27:20;;;;;;;7.32;6.53;;;20.40;58.60;;;;;;4893771;28;87214;-68
2022/03/30 03:29:46;;;;;;;8.05;6.30;;;20.40;58.50;;;;;;4893266;28;88444;-72
2022/03/30 03:32:11;;;;;;;8.63;6.70;;;20.40;58.50;;;;;;4893091;28;88230;-69
2022/03/30 03:34:37;;;;;;;7.22;6.53;;;20.30;58.40;;;;;;4894158;28;87998;-69
2022/03/30 03:37:03;;;;;;;7.20;6.18;;;20.30;58.30;;;;;;4893289;28;87956;-70
2022/03/30 03:39:29;;;;;;;7.38;6.60;;;20.30;58.20;;;;;;4892162;28;87797;-70
2022/03/30 03:41:54;;;;;;;7.43;6.72;;;20.30;58.30;;;;;;4892057;28;88835;-70
2022/03/30 03:44:20;;;;;;;7.13;6.20;;;20.30;58.30;;;;;;4893020;28;89372;-70
2022/03/30 03:46:46;;;;;;;9.70;6.22;;;20.30;58.30;;;;;;4907795;28;87111;-69
2022/03/30 03:49:12;;;;;;;7.30;6.13;;;20.30;58.20;;;;;;4893148;28;86927;-70
2022/03/30 03:51:37;;;;;;;7.03;6.18;;;20.30;58.30;;;;;;4892805;28;88083;-70
2022/03/30 03:54:03;;;;;;;7.80;7.00;;;20.30;58.30;;;;;;4893097;28;88065;-69
2022/03/30 03:56:29;;;;;;;7.53;6.72;;;20.30;58.20;;;;;;4893386;28;88286;-69
2022/03/30 03:58:55;;;;;;;9.88;6.30;;;20.30;58.30;;;;;;4893674;28;86879;-72
2022/03/30 04:01:21;;;;;;;7.60;6.50;;;20.30;58.20;;;;;;4892997;28;87716;-69
2022/03/30 04:03:47;;;;;;;6.90;6.20;;;20.30;58.20;;;;;;4891883;28;87852;-69
2022/03/30 04:06:12;;;;;;;7.15;6.03;;;20.30;58.20;;;;;;4891676;28;88352;-70
2022/03/30 04:08:38;;;;;;;7.75;6.38;;;20.30;58.20;;;;;;4906562;28;89625;-69
2022/03/30 04:11:04;;;;;;;6.93;6.30;;;20.30;58.10;;;;;;4892387;28;88024;-72
2022/03/30 04:13:31;;;;;;;6.82;6.22;;;20.30;58.10;;;;;;4892455;28;88194;-69
2022/03/30 04:15:57;;;;;;;6.57;5.97;;;20.30;58.10;;;;;;4892912;28;87383;-68
2022/03/30 04:18:23;;;;;;;7.20;6.00;;;20.30;58.00;;;;;;4892362;28;87707;-69
2022/03/30 04:20:49;;;;;;;7.45;6.65;;;20.30;58.10;;;;;;4891871;28;88134;-68
2022/03/30 04:23:14;;;;;;;7.40;6.60;;;20.20;57.90;;;;;;4892882;28;87130;-69
2022/03/30 04:25:40;;;;;;;8.05;7.03;;;20.20;58.10;;;;;;4892942;28;87912;-68
2022/03/30 04:28:06;;;;;;;7.60;6.60;;;20.20;58.10;;;;;;4906908;28;90239;-69
2022/03/30 04:30:31;;;;;;;7.25;6.03;;;20.20;57.90;;;;;;4890737;28;91945;-72
2022/03/30 04:32:57;;;;;;;7.32;6.45;;;20.20;58.00;;;;;;4891165;28;91172;-69
2022/03/30 04:35:25;;;;;;;7.25;6.55;;;20.20;57.90;;;;;;4892475;28;88182;-71
2022/03/30 04:37:54;;;;;;;7.03;6.30;;;20.20;58.00;;;;;;4907064;28;89048;-69
2022/03/30 04:40:22;;;;;;;8.07;6.82;;;20.20;58.00;;;;;;4891800;28;87551;-71
2022/03/30 04:42:48;;;;;;;6.97;6.28;;;20.20;57.90;;;;;;4891534;28;87782;-71
2022/03/30 04:45:14;;;;;;;7.43;6.03;;;20.20;57.90;;;;;;4892042;28;88186;-71
2022/03/30 04:47:40;;;;;;;7.75;6.30;;;20.20;58.00;;;;;;4891153;28;89880;-71
2022/03/30 04:50:06;;;;;;;7.68;6.15;;;20.20;57.80;;;;;;4892268;28;87849;-68
2022/03/30 04:52:32;;;;;;;6.80;6.18;;;20.20;57.90;;;;;;4892225;28;88016;-69
2022/03/30 04:54:58;;;;;;;6.45;5.78;;;20.20;57.80;;;;;;4906143;28;89727;-68
2022/03/30 04:57:24;;;;;;;8.70;7.07;;;20.20;57.80;;;;;;4892270;28;87446;-70
2022/03/30 04:59:50;;;;;;;7.25;6.55;;;20.20;57.90;;;;;;4889599;28;90498;-68
2022/03/30 05:02:16;;;;;;;6.95;6.25;;;20.20;57.70;;;;;;4906085;28;90399;-69
2022/03/30 05:04:42;;;;;;;7.82;6.20;;;20.20;57.80;;;;;;4891527;28;87803;-68
2022/03/30 05:07:07;;;;;;;6.63;5.93;;;20.20;57.80;;;;;;4891630;28;87379;-72
2022/03/30 05:09:33;;;;;;;8.48;6.95;;;20.20;57.90;;;;;;4891106;28;88223;-68
2022/03/30 05:11:59;;;;;;;6.90;6.20;;;20.20;57.90;;;;;;4891323;28;88191;-71
2022/03/30 05:14:24;;;;;;;7.05;6.20;;;20.20;57.70;;;;;;4891697;28;87925;-68
2022/03/30 05:16:50;;;;;;;10.35;6.43;;;20.20;57.80;;;;;;4890263;28;88233;-69
2022/03/30 05:19:16;;;;;;;6.88;6.18;;;20.20;57.80;;;;;;4891170;28;88511;-69
2022/03/30 05:21:41;;;;;;;7.50;5.90;;;20.20;57.70;;;;;;4891476;28;88661;-71
2022/03/30 05:24:07;;;;;;;7.13;6.38;;;20.20;57.80;;;;;;4906653;28;87507;-70
2022/03/30 05:26:35;;;;;;;8.18;5.68;;;20.30;57.80;;;;;;4891906;28;87896;-70
2022/03/30 05:29:01;;;;;;;7.18;6.05;;;20.30;58.00;;;;;;4891658;28;87426;-68
2022/03/30 05:31:26;;;;;;;6.95;6.05;;;20.20;57.70;;;;;;4891962;28;87826;-70
2022/03/30 05:33:52;;;;;;;8.20;6.40;;;20.30;57.60;;;;;;4905450;28;88473;-71
2022/03/30 05:36:18;;;;;;;7.50;6.55;;;20.30;57.60;;;;;;4891933;28;87057;-70
2022/03/30 05:38:45;;;;;;;7.88;6.00;;;20.30;57.50;;;;;;4889941;28;90771;-70
2022/03/30 05:41:11;;;;;;;9.40;6.13;;;20.30;57.50;;;;;;4890044;28;87968;-68
2022/03/30 05:43:36;;;;;;;9.32;6.05;;;20.30;57.70;;;;;;4905139;28;87924;-69
2022/03/30 05:46:02;;;;;;;10.23;6.50;;;20.30;57.60;;;;;;4908202;28;88639;-68
2022/03/30 05:48:28;;;;;;;8.88;5.97;;;20.30;57.50;;;;;;4894988;28;88261;-71
2022/03/30 05:50:55;;;;;;;8.23;6.50;;;20.30;57.50;;;;;;4895158;28;87807;-68
2022/03/30 05:53:21;;;;;;;11.07;6.55;;;20.30;57.60;;;;;;4909224;28;87947;-68
2022/03/30 05:55:47;;;;;;;10.07;6.75;;;20.30;57.60;;;;;;4894206;28;87991;-70
2022/03/30 05:58:15;;;;;;;19.75;8.07;;;20.30;57.40;;;;;;4894622;28;88070;-69
2022/03/30 06:00:42;;;;;;;20.33;9.90;;;20.30;57.60;;;;;;4894992;28;88025;-71
2022/03/30 06:03:10;;;;;;;25.88;12.13;;;20.30;58.30;;;;;;4895335;28;87661;-70
2022/03/30 06:05:36;;;;;;;27.05;11.98;;;20.30;59.40;;;;;;4894155;28;87190;-70
2022/03/30 06:08:01;;;;;;;24.77;10.82;;;20.30;57.10;;;;;;4907082;28;90656;-69
2022/03/30 06:10:27;;;;;;;48.92;15.02;;;20.40;58.90;;;;;;4893768;28;88992;-70
2022/03/30 06:12:55;;;;;;;47.72;15.63;;;20.40;57.80;;;;;;4893702;28;87681;-69
2022/03/30 06:15:21;;;;;;;20.83;10.13;;;20.40;57.20;;;;;;4892524;28;87629;-69
2022/03/30 06:17:48;;;;;;;27.65;11.35;;;20.40;59.30;;;;;;4906663;28;91120;-69
2022/03/30 06:20:14;;;;;;;24.65;10.40;;;20.50;58.80;;;;;;4894047;28;88032;-68
2022/03/30 06:22:44;;;;;;;25.83;11.00;;;20.50;58.90;;;;;;4891938;28;86972;-69
2022/03/30 06:25:10;;;;;;;26.48;11.68;;;20.60;59.40;;;;;;4892049;28;87450;-68
2022/03/30 06:27:40;;;;;;;22.65;11.07;;;20.70;59.50;;;;;;4891030;28;88379;-71
2022/03/30 06:30:07;;;;;;;33.38;11.40;;;20.70;59.50;;;;;;4904900;28;90257;-70
2022/03/30 06:32:35;;;;;;;30.00;11.98;;;20.70;59.60;;;;;;4901235;28;89005;-71
2022/03/30 06:35:05;;;;;;;31.05;12.25;;;20.80;59.70;;;;;;4889827;28;87583;-69
2022/03/30 06:37:31;;;;;;;30.95;11.98;;;20.70;59.60;;;;;;4890829;28;89561;-69
2022/03/30 06:39:57;;;;;;;29.17;11.05;;;20.70;59.40;;;;;;4889630;28;88077;-69
2022/03/30 06:42:23;;;;;;;35.40;12.45;;;20.80;59.70;;;;;;4889980;28;87221;-68
2022/03/30 06:44:48;;;;;;;44.38;11.95;;;20.80;59.70;;;;;;4890008;28;87911;-69
2022/03/30 06:47:14;;;;;;;24.55;10.40;;;20.80;59.70;;;;;;4904076;28;91708;-71
2022/03/30 06:49:40;;;;;;;31.60;12.27;;;20.80;59.80;;;;;;4891171;28;88598;-69
2022/03/30 06:52:08;;;;;;;28.63;13.10;;;20.80;59.70;;;;;;4890726;28;88259;-69
2022/03/30 06:54:35;;;;;;;23.65;12.23;;;20.70;59.20;;;;;;4890089;28;87732;-71
2022/03/30 06:57:02;;;;;;;29.63;13.02;;;20.70;59.10;;;;;;4897129;28;88914;-69
2022/03/30 06:59:29;;;;;;;28.77;12.85;;;20.80;59.00;;;;;;4918788;28;89353;-69
2022/03/30 07:01:58;;;;;;;28.27;12.70;;;20.70;59.10;;;;;;4924539;28;88127;-71
2022/03/30 07:04:24;;;;;;;;;;;20.70;59.20;;;;;;4911148;28;87550;-71
2022/03/30 07:12:17;;;;;;;29.98;11.20;;;20.70;59.50;;;;;;4907853;28;87908;-70
2022/03/30 07:14:46;;;;;;;29.17;10.60;;;20.70;59.60;;;;;;4910336;28;87209;-71
2022/03/30 07:17:12;;;;;;;32.60;11.80;;;20.70;59.50;;;;;;4941064;28;89441;-69
2022/03/30 07:19:38;;;;;;;29.02;12.05;;;20.80;59.70;;;;;;4909304;28;87797;-69
2022/03/30 07:22:09;;;;;;;25.75;11.82;;;20.80;59.90;;;;;;4908788;28;88215;-69
2022/03/30 07:24:35;;;;;;;36.35;15.52;;;20.70;59.70;;;;;;4906957;28;89710;-69
2022/03/30 07:27:01;;;;;;;29.27;11.15;;;20.80;59.00;;;;;;4909182;28;88191;-69
2022/03/30 07:29:29;;;;;;;29.75;13.77;;;20.80;59.60;;;;;;4910625;28;87687;-69
2022/03/30 07:31:55;;;;;;;32.03;11.73;;;20.70;59.10;;;;;;4910684;28;87010;-69
2022/03/30 07:34:20;;;;;;;29.45;12.65;;;20.70;58.70;;;;;;4909818;28;88090;-68
2022/03/30 07:36:48;;;;;;;27.05;12.82;;;20.70;59.20;;;;;;4940639;28;90034;-69
2022/03/30 07:39:14;;;;;;;27.23;11.52;;;20.80;59.40;;;;;;4939671;28;91602;-69
2022/03/30 07:41:40;;;;;;;20.95;11.02;;;20.70;59.40;;;;;;4909910;28;88285;-68
2022/03/30 07:44:08;;;;;;;26.38;10.75;;;20.80;59.40;;;;;;4914397;28;88691;-69
2022/03/30 07:46:33;;;;;;;26.30;11.40;;;20.80;59.50;;;;;;4908000;28;89264;-68
2022/03/30 07:48:59;;;;;;;24.02;11.02;;;20.80;59.70;;;;;;4909844;28;88801;-69
2022/03/30 07:51:25;;;;;;;27.77;12.15;;;20.80;59.70;;;;;;4909487;28;87040;-69
2022/03/30 07:53:51;;;;;;;32.58;12.77;;;20.80;59.50;;;;;;4909402;28;87981;-68
2022/03/30 07:56:16;;;;;;;32.25;11.90;;;20.80;58.60;;;;;;4917322;28;90119;-71
2022/03/30 07:58:42;;;;;;;25.15;11.85;;;20.80;58.80;;;;;;4906412;28;90982;-70
2022/03/30 08:01:08;;;;;;;26.85;11.50;;;20.80;59.30;;;;;;4922583;28;88122;-71
2022/03/30 08:03:34;;;;;;;22.27;11.75;;;20.80;59.10;;;;;;4909884;28;87628;-69
2022/03/30 08:06:00;;;;;;;23.73;11.52;;;20.80;58.50;;;;;;4913672;28;90190;-70
2022/03/30 08:08:26;;;;;;;35.42;12.15;;;20.80;58.90;;;;;;4906144;28;91112;-69
2022/03/30 08:10:55;;;;;;;30.00;11.85;;;20.90;59.80;;;;;;4906383;28;88842;-69
2022/03/30 08:13:20;;;;;;;29.90;11.70;;;20.90;59.30;;;;;;4908063;28;87409;-69
2022/03/30 08:15:46;;;;;;;31.67;11.63;;;20.80;58.30;;;;;;4908200;28;87856;-69
2022/03/30 08:18:11;;;;;;;20.65;10.38;;;20.90;58.70;;;;;;4908943;28;88370;-69
2022/03/30 08:23:22;;;;;;;25.10;10.23;;;20.90;59.30;;;;;;4909087;28;87902;-69
2022/03/30 08:25:48;;;;;;;22.63;10.18;;;20.90;59.80;;;;;;4907311;28;88146;-70
2022/03/30 08:28:14;;;;;;;27.23;10.25;;;20.90;61.00;;;;;;4906356;28;88422;-69
2022/03/30 08:30:39;;;;;;;16.33;9.35;;;21.00;60.40;;;;;;4912224;28;88375;-69
2022/03/30 08:33:05;;;;;;;22.02;9.52;;;21.00;60.30;;;;;;4909171;28;87300;-68
2022/03/30 08:35:31;;;;;;;28.88;10.40;;;21.00;60.30;;;;;;4907981;28;88811;-69
2022/03/30 08:37:57;;;;;;;22.17;10.23;;;21.00;60.10;;;;;;4905526;28;90106;-69
2022/03/30 08:40:24;;;;;;;19.17;9.07;;;21.00;60.80;;;;;;4905732;28;87708;-70
2022/03/30 08:42:51;;;;;;;20.55;10.05;;;21.00;60.00;;;;;;4908554;28;87819;-68
2022/03/30 08:45:17;;;;;;;20.63;9.27;;;21.00;59.90;;;;;;4907692;28;90950;-68
2022/03/30 08:47:42;;;;;;;21.77;10.05;;;21.00;60.50;;;;;;4904443;28;90237;-72
2022/03/30 08:50:09;;;;;;;26.65;9.85;;;21.10;60.30;;;;;;4908848;28;87919;-69
2022/03/30 08:52:35;;;;;;;20.77;8.88;;;21.10;60.10;;;;;;4909891;28;86811;-69
2022/03/30 08:55:01;;;;;;;24.15;9.90;;;21.10;60.10;;;;;;4909560;28;91026;-70
2022/03/30 08:57:27;;;;;;;27.10;9.63;;;21.10;59.90;;;;;;4908329;28;87574;-69
2022/03/30 09:00:02;;;;;;;24.05;10.13;;;21.10;59.60;;;;;;4893642;28;88382;-71
2022/03/30 09:02:38;;;;;;;24.70;9.60;;;21.00;58.80;;;;;;4906868;28;88382;-69
2022/03/30 09:05:31;;;;;;;22.55;10.27;;;21.10;59.10;;;;;;4893584;28;91425;-69
2022/03/30 09:08:10;;;;;;;17.63;9.27;;;21.10;58.90;;;;;;4906023;28;87913;-69
2022/03/30 09:10:36;;;;;;;21.50;9.87;;;21.10;59.30;;;;;;4906868;28;87687;-70
2022/03/30 09:13:04;;;;;;;23.27;10.77;;;21.10;59.80;;;;;;4908610;28;87923;-69
2022/03/30 09:15:31;;;;;;;22.52;11.02;;;21.10;59.90;;;;;;4922315;28;91182;-70
2022/03/30 09:18:01;;;;;;;19.98;11.43;;;21.10;60.00;;;;;;4907177;28;88429;-70
2022/03/30 09:20:27;;;;;;;20.25;12.13;;;21.10;59.70;;;;;;4907744;28;87998;-72
2022/03/30 09:22:58;;;;;;;19.85;11.85;;;21.10;59.60;;;;;;4908544;28;88554;-68
2022/03/30 09:25:31;;;;;;;21.85;12.07;;;21.10;59.30;;;;;;4907923;28;91269;-69
2022/03/30 09:27:59;;;;;;;27.45;12.52;;;21.20;59.00;;;;;;4907991;28;88800;-69
2022/03/30 09:30:26;;;;;;;21.92;12.07;;;21.10;59.10;;;;;;4909996;28;87901;-72
2022/03/30 09:32:54;;;;;;;23.48;13.35;;;21.10;57.80;;;;;;4910383;28;88285;-69
2022/03/30 09:35:28;;;;;;;23.85;11.93;;;21.10;58.00;;;;;;4910931;28;91133;-69
2022/03/30 09:38:01;;;;;;;23.58;11.57;;;21.10;58.80;;;;;;4910412;28;91016;-69
2022/03/30 09:40:44;;;;;;;23.15;11.35;;;21.10;59.20;;;;;;4902594;28;88042;-69
2022/03/30 09:43:12;;;;;;;25.65;11.93;;;21.10;59.40;;;;;;4941784;28;90343;-71
2022/03/30 09:45:38;;;;;;;28.33;13.20;;;21.20;59.60;;;;;;4910052;28;88454;-71
2022/03/30 09:48:20;;;;;;;20.88;12.20;;;21.10;59.30;;;;;;4898374;28;92272;-69
2022/03/30 09:50:51;;;;;;;27.95;11.20;;;21.20;59.70;;;;;;4910811;28;88648;-68
2022/03/30 09:53:19;;;;;;;24.67;11.68;;;21.20;59.60;;;;;;4911537;28;87900;-69
2022/03/30 09:55:52;;;;;;;23.77;11.98;;;21.20;59.70;;;;;;4917742;28;89327;-69
2022/03/30 09:58:21;;;;;;;21.10;11.65;;;21.20;59.80;;;;;;4903976;28;87864;-70
2022/03/30 10:01:08;;;;;;;18.63;10.88;;;21.20;60.10;;;;;;4904335;28;87581;-71
2022/03/30 10:03:43;;;;;;;17.73;10.60;;;21.20;60.70;;;;;;4891402;28;89298;-68
2022/03/30 10:06:14;;;;;;;20.25;11.02;;;21.20;60.50;;;;;;4907259;28;90620;-71
2022/03/30 10:08:42;;;;;;;21.30;11.27;;;21.20;60.80;;;;;;4909693;28;89726;-69
2022/03/30 10:11:10;;;;;;;28.23;11.25;;;21.20;60.80;;;;;;4933086;28;87139;-71
2022/03/30 10:13:40;;;;;;;22.65;10.63;;;21.20;60.80;;;;;;4901951;28;88034;-69
2022/03/30 10:16:08;;;;;;;19.17;10.90;;;21.20;60.70;;;;;;4900872;28;89063;-71
2022/03/30 10:18:34;;;;;;;20.20;11.40;;;21.20;60.90;;;;;;4901281;28;91218;-70
2022/03/30 10:21:22;;;;;;;20.92;10.18;;;21.20;60.80;;;;;;4902566;28;87771;-71
2022/03/30 10:24:09;;;;;;;25.92;11.35;;;21.30;60.80;;;;;;4902309;28;88214;-72
2022/03/30 10:26:55;;;;;;;27.63;9.93;;;21.30;60.80;;;;;;4892628;28;90966;-70
2022/03/30 10:29:24;;;;;;;22.20;10.90;;;21.30;61.00;;;;;;4894452;28;91510;-70
2022/03/30 10:32:19;;;;;;;24.27;10.30;;;21.30;60.70;;;;;;4902460;28;88026;-70
2022/03/30 10:35:06;;;;;;;18.15;10.52;;;21.30;60.80;;;;;;4900177;28;87204;-69
2022/03/30 10:37:36;;;;;;;22.52;9.88;;;21.30;60.70;;;;;;4915085;28;91022;-72
2022/03/30 10:40:04;;;;;;;20.50;10.02;;;21.30;60.40;;;;;;4914917;28;91053;-70
2022/03/30 10:42:54;;;;;;;16.60;9.60;;;21.30;60.20;;;;;;4891712;28;89164;-69
2022/03/30 10:45:30;;;;;;;18.25;10.18;;;21.30;60.30;;;;;;4903248;28;87555;-69
2022/03/30 10:48:30;;;;;;;22.85;9.80;;;21.30;60.30;;;;;;4902360;28;87846;-67
2022/03/30 10:51:06;;;;;;;18.90;9.07;;;21.30;60.60;;;;;;4893554;28;89544;-69
2022/03/30 10:53:35;;;;;;;21.90;10.75;;;21.30;59.60;;;;;;4905776;28;87745;-70
2022/03/30 10:56:15;;;;;;;19.17;11.10;;;21.30;59.00;;;;;;4903998;28;87022;-71
2022/03/30 10:58:52;;;;;;;25.52;10.98;;;21.30;58.10;;;;;;4902792;28;88866;-71
2022/03/30 11:01:25;;;;;;;19.10;10.55;;;21.30;58.20;;;;;;4902437;28;87384;-71
2022/03/30 11:04:18;;;;;;;19.30;10.88;;;21.30;57.50;;;;;;4908679;28;88740;-71
2022/03/30 11:06:47;;;;;;;21.33;10.75;;;21.30;56.70;;;;;;4903327;28;87586;-71
2022/03/30 11:09:20;;;;;;;89.75;30.05;;;21.30;57.40;;;;;;4902337;28;89653;-69
2022/03/30 11:12:02;;;;;;;73.95;22.05;;;21.30;55.70;;;;;;4902012;28;89680;-70
2022/03/30 11:14:36;;;;;;;52.75;21.17;;;21.20;55.40;;;;;;4903382;28;88237;-70
2022/03/30 11:17:04;;;;;;;46.05;17.55;;;21.30;55.70;;;;;;4902683;28;87639;-73
2022/03/30 11:19:57;;;;;;;51.85;17.92;;;21.30;56.20;;;;;;4932211;28;88733;-70
2022/03/30 11:22:37;;;;;;;43.80;17.20;;;21.30;55.40;;;;;;4898958;28;89252;-70
2022/03/30 11:25:13;;;;;;;41.47;16.08;;;21.30;56.00;;;;;;4908041;28;88587;-70
2022/03/30 11:27:43;;;;;;;33.60;12.23;;;21.30;55.10;;;;;;4900069;28;87239;-72
2022/03/30 11:30:08;;;;;;;34.40;14.05;;;21.30;56.10;;;;;;4899675;28;88014;-69
2022/03/30 11:32:55;;;;;;;28.33;12.02;;;21.30;56.20;;;;;;4900331;28;88275;-69
2022/03/30 11:35:25;;;;;;;31.67;13.20;;;21.30;56.10;;;;;;4898571;28;89370;-70
2022/03/30 11:38:07;;;;;;;34.85;13.95;;;21.30;54.50;;;;;;4899065;28;91291;-71
2022/03/30 11:40:39;;;;;;;32.40;13.38;;;21.30;54.50;;;;;;4929548;28;90619;-71
2022/03/30 11:43:05;;;;;;;35.17;13.52;;;21.30;55.20;;;;;;4916840;28;90261;-71
2022/03/30 11:45:32;;;;;;;32.50;13.23;;;21.30;54.40;;;;;;4907536;28;88144;-71
2022/03/30 11:48:12;;;;;;;25.58;12.45;;;21.30;55.10;;;;;;4909295;28;88079;-70
2022/03/30 11:50:39;;;;;;;29.98;12.95;;;21.30;55.20;;;;;;4907087;28;89529;-70
2022/03/30 11:53:06;;;;;;;28.05;12.70;;;21.30;55.20;;;;;;4909007;28;87521;-69
2022/03/30 11:55:51;;;;;;;29.00;12.75;;;21.30;56.00;;;;;;4910624;28;86983;-69
2022/03/30 11:58:34;;;;;;;26.08;12.50;;;21.30;56.10;;;;;;4910749;28;87667;-70
2022/03/30 12:01:12;;;;;;;32.28;11.32;;;21.30;54.70;;;;;;4909170;28;89259;-71
2022/03/30 12:03:40;;;;;;;23.88;11.73;;;21.30;55.20;;;;;;4908870;28;90129;-70
2022/03/30 12:06:07;;;;;;;31.38;13.50;;;21.30;55.50;;;;;;4909180;28;87824;-69
2022/03/30 12:08:44;;;;;;;21.88;11.82;;;21.30;55.50;;;;;;4908789;28;88183;-70
2022/03/30 12:11:10;;;;;;;23.65;10.93;;;21.30;55.90;;;;;;4908798;28;87620;-70
2022/03/30 12:13:37;;;;;;;29.55;11.57;;;21.30;56.40;;;;;;4910336;28;87954;-70
2022/03/30 12:16:07;;;;;;;24.90;11.77;;;21.30;56.50;;;;;;4908879;28;88305;-71
2022/03/30 12:18:45;;;;;;;23.58;11.38;;;21.30;56.40;;;;;;4907984;28;87107;-70
2022/03/30 12:21:14;;;;;;;24.63;10.85;;;21.30;56.20;;;;;;4907727;28;91544;-70
2022/03/30 12:23:52;;;;;;;29.33;10.68;;;21.30;56.60;;;;;;4908476;28;89768;-70
2022/03/30 12:26:18;;;;;;;23.00;11.60;;;21.30;56.70;;;;;;4909813;28;88891;-70
2022/03/30 12:28:44;;;;;;;20.92;11.15;;;21.30;56.50;;;;;;4895530;28;90059;-70
2022/03/30 12:31:10;;;;;;;20.15;11.13;;;21.30;55.60;;;;;;4907994;28;89573;-71
2022/03/30 12:33:43;;;;;;;25.67;11.57;;;21.30;56.20;;;;;;4907777;28;90947;-71
2022/03/30 12:36:18;;;;;;;25.80;10.93;;;21.30;57.00;;;;;;4909916;28;87822;-70
2022/03/30 12:38:44;;;;;;;28.35;11.02;;;21.30;56.40;;;;;;4910661;28;87872;-70
2022/03/30 12:41:11;;;;;;;24.15;11.30;;;21.30;56.30;;;;;;4908869;28;90297;-69
2022/03/30 12:43:39;;;;;;;28.50;11.27;;;21.30;56.90;;;;;;4908587;28;87856;-72
2022/03/30 12:46:14;;;;;;;24.65;10.95;;;21.40;56.70;;;;;;4912474;28;87814;-72
2022/03/30 12:48:41;;;;;;;25.13;10.43;;;21.30;56.50;;;;;;4910748;28;87753;-69
2022/03/30 12:51:18;;;;;;;25.27;11.27;;;21.20;55.90;;;;;;4909872;28;89665;-71
2022/03/30 12:53:47;;;;;;;23.73;11.00;;;21.20;56.00;;;;;;4940479;28;91589;-70
2022/03/30 12:56:18;;;;;;;19.52;9.75;;;21.20;56.90;;;;;;4909683;28;87830;-70
2022/03/30 12:58:59;;;;;;;22.58;10.70;;;21.20;56.10;;;;;;4904473;28;87806;-71